sensor_id;sensor_type;location;lat;lon;timestamp;P1;durP1;ratioP1;P2;durP2;ratioP2
74535;SDS011;63013;51.104;-115.370;2022-10-17T00:00:57;3.60;;;2.20;;
74535;SDS011;63013;51.104;-115.370;2022-10-17T00:03:24;2.90;;;2.30;;
74535;SDS011;63013;51.104;-115.370;2022-10-17T00:05:51;3.10;;;2.00;;
74535;SDS011;63013;51.104;-115.370;2022-10-17T00:08:19;2.90;;;1.90;;
74535;SDS011;63013;51.104;-115.370;2022-10-17T00:10:57;3.50;;;2.20;;
74535;SDS011;63013;51.104;-115.370;2022-10-17T00:13:26;2.80;;;2.00;;
74535;SDS011;63013;51.104;-115.370;2022-10-17T00:15:54;3.80;;;2.10;;
74535;SDS011;63013;51.104;-115.370;2022-10-17T00:18:21;3.60;;;1.70;;
74535;SDS011;63013;51.104;-115.370;2022-10-17T00:20:48;3.40;;;2.00;;
74535;SDS011;63013;51.104;-115.370;2022-10-17T00:23:16;3.20;;;2.10;;
74535;SDS011;63013;51.104;-115.370;2022-10-17T00:25:44;3.50;;;2.20;;
74535;SDS011;63013;51.104;-115.370;2022-10-17T00:28:12;2.30;;;1.50;;
74535;SDS011;63013;51.104;-115.370;2022-10-17T00:30:40;2.80;;;1.80;;
74535;SDS011;63013;51.104;-115.370;2022-10-17T00:33:07;3.00;;;1.80;;
74535;SDS011;63013;51.104;-115.370;2022-10-17T00:35:34;4.50;;;1.80;;
74535;SDS011;63013;51.104;-115.370;2022-10-17T00:38:02;2.20;;;1.80;;
74535;SDS011;63013;51.104;-115.370;2022-10-17T00:40:28;2.20;;;1.60;;
74535;SDS011;63013;51.104;-115.370;2022-10-17T00:42:56;2.20;;;1.60;;
74535;SDS011;63013;51.104;-115.370;2022-10-17T00:45:28;3.20;;;1.80;;
74535;SDS011;63013;51.104;-115.370;2022-10-17T00:48:08;2.40;;;1.90;;
74535;SDS011;63013;51.104;-115.370;2022-10-17T00:50:39;3.90;;;2.00;;
74535;SDS011;63013;51.104;-115.370;2022-10-17T00:53:10;2.80;;;1.70;;
74535;SDS011;63013;51.104;-115.370;2022-10-17T00:55:43;3.60;;;1.70;;
74535;SDS011;63013;51.104;-115.370;2022-10-17T00:58:16;2.10;;;1.50;;
74535;SDS011;63013;51.104;-115.370;2022-10-17T01:00:45;2.00;;;1.40;;
74535;SDS011;63013;51.104;-115.370;2022-10-17T01:03:13;2.30;;;1.50;;
74535;SDS011;63013;51.104;-115.370;2022-10-17T01:05:42;3.10;;;1.60;;
74535;SDS011;63013;51.104;-115.370;2022-10-17T01:08:10;1.60;;;1.30;;
74535;SDS011;63013;51.104;-115.370;2022-10-17T01:10:54;2.40;;;1.40;;
74535;SDS011;63013;51.104;-115.370;2022-10-17T01:20:32;2.10;;;1.50;;
74535;SDS011;63013;51.104;-115.370;2022-10-17T01:23:53;1.90;;;1.20;;
74535;SDS011;63013;51.104;-115.370;2022-10-17T01:27:06;3.80;;;1.30;;
74535;SDS011;63013;51.104;-115.370;2022-10-17T01:38:31;4.20;;;1.20;;
74535;SDS011;63013;51.104;-115.370;2022-10-17T01:41:16;1.90;;;1.30;;
74535;SDS011;63013;51.104;-115.370;2022-10-17T01:44:07;2.20;;;1.30;;
74535;SDS011;63013;51.104;-115.370;2022-10-17T01:46:42;2.10;;;0.90;;
74535;SDS011;63013;51.104;-115.370;2022-10-17T01:49:13;3.10;;;1.40;;
74535;SDS011;63013;51.104;-115.370;2022-10-17T01:51:48;2.30;;;1.20;;
74535;SDS011;63013;51.104;-115.370;2022-10-17T01:54:41;1.80;;;1.20;;
74535;SDS011;63013;51.104;-115.370;2022-10-17T01:57:28;3.20;;;1.10;;
74535;SDS011;63013;51.104;-115.370;2022-10-17T01:59:59;1.50;;;1.20;;
74535;SDS011;63013;51.104;-115.370;2022-10-17T02:02:32;2.20;;;1.50;;
74535;SDS011;63013;51.104;-115.370;2022-10-17T02:05:01;3.10;;;1.10;;
74535;SDS011;63013;51.104;-115.370;2022-10-17T02:07:29;2.20;;;1.30;;
74535;SDS011;63013;51.104;-115.370;2022-10-17T02:09:56;2.60;;;1.10;;
74535;SDS011;63013;51.104;-115.370;2022-10-17T02:12:47;2.10;;;1.30;;
74535;SDS011;63013;51.104;-115.370;2022-10-17T02:15:46;1.70;;;1.10;;
74535;SDS011;63013;51.104;-115.370;2022-10-17T02:19:17;1.80;;;1.10;;
74535;SDS011;63013;51.104;-115.370;2022-10-17T02:22:04;1.50;;;1.00;;
74535;SDS011;63013;51.104;-115.370;2022-10-17T02:24:59;1.90;;;1.30;;
74535;SDS011;63013;51.104;-115.370;2022-10-17T02:27:46;1.80;;;1.00;;
74535;SDS011;63013;51.104;-115.370;2022-10-17T02:30:34;1.60;;;1.10;;
74535;SDS011;63013;51.104;-115.370;2022-10-17T02:33:41;2.20;;;1.10;;
74535;SDS011;63013;51.104;-115.370;2022-10-17T02:36:23;1.10;;;0.80;;
74535;SDS011;63013;51.104;-115.370;2022-10-17T02:38:56;2.40;;;1.00;;
74535;SDS011;63013;51.104;-115.370;2022-10-17T02:41:25;1.50;;;1.00;;
74535;SDS011;63013;51.104;-115.370;2022-10-17T02:43:53;2.10;;;1.20;;
74535;SDS011;63013;51.104;-115.370;2022-10-17T02:46:22;1.40;;;1.20;;
74535;SDS011;63013;51.104;-115.370;2022-10-17T02:49:06;2.10;;;1.20;;
74535;SDS011;63013;51.104;-115.370;2022-10-17T02:51:46;1.30;;;1.10;;
74535;SDS011;63013;51.104;-115.370;2022-10-17T02:54:42;2.40;;;1.00;;
74535;SDS011;63013;51.104;-115.370;2022-10-17T02:57:28;3.30;;;1.50;;
74535;SDS011;63013;51.104;-115.370;2022-10-17T03:00:02;2.30;;;1.20;;
74535;SDS011;63013;51.104;-115.370;2022-10-17T03:02:46;1.70;;;1.10;;
74535;SDS011;63013;51.104;-115.370;2022-10-17T03:05:20;2.00;;;1.20;;
74535;SDS011;63013;51.104;-115.370;2022-10-17T03:07:55;1.50;;;1.20;;
74535;SDS011;63013;51.104;-115.370;2022-10-17T03:10:22;1.40;;;1.00;;
74535;SDS011;63013;51.104;-115.370;2022-10-17T03:12:49;1.40;;;1.10;;
74535;SDS011;63013;51.104;-115.370;2022-10-17T03:15:16;1.50;;;1.10;;
74535;SDS011;63013;51.104;-115.370;2022-10-17T03:17:43;1.80;;;1.20;;
74535;SDS011;63013;51.104;-115.370;2022-10-17T03:20:11;1.70;;;1.20;;
74535;SDS011;63013;51.104;-115.370;2022-10-17T03:22:38;1.10;;;0.90;;
74535;SDS011;63013;51.104;-115.370;2022-10-17T03:25:05;2.00;;;1.00;;
74535;SDS011;63013;51.104;-115.370;2022-10-17T03:27:32;2.50;;;1.50;;
74535;SDS011;63013;51.104;-115.370;2022-10-17T03:29:59;2.00;;;1.10;;
74535;SDS011;63013;51.104;-115.370;2022-10-17T03:32:26;1.80;;;1.10;;
74535;SDS011;63013;51.104;-115.370;2022-10-17T03:34:53;2.00;;;1.20;;
74535;SDS011;63013;51.104;-115.370;2022-10-17T03:37:21;2.30;;;1.30;;
74535;SDS011;63013;51.104;-115.370;2022-10-17T03:39:48;1.40;;;1.00;;
74535;SDS011;63013;51.104;-115.370;2022-10-17T03:42:15;2.00;;;1.00;;
74535;SDS011;63013;51.104;-115.370;2022-10-17T03:44:42;2.10;;;1.20;;
74535;SDS011;63013;51.104;-115.370;2022-10-17T03:47:09;1.60;;;1.20;;
74535;SDS011;63013;51.104;-115.370;2022-10-17T03:49:36;1.80;;;1.10;;
74535;SDS011;63013;51.104;-115.370;2022-10-17T03:52:03;1.80;;;1.10;;
74535;SDS011;63013;51.104;-115.370;2022-10-17T03:54:31;1.70;;;0.90;;
74535;SDS011;63013;51.104;-115.370;2022-10-17T03:56:58;2.50;;;1.10;;
74535;SDS011;63013;51.104;-115.370;2022-10-17T03:59:25;3.20;;;1.40;;
74535;SDS011;63013;51.104;-115.370;2022-10-17T04:01:52;1.90;;;1.10;;
74535;SDS011;63013;51.104;-115.370;2022-10-17T04:04:20;2.30;;;1.20;;
74535;SDS011;63013;51.104;-115.370;2022-10-17T04:06:47;1.50;;;1.10;;
74535;SDS011;63013;51.104;-115.370;2022-10-17T04:09:15;1.60;;;1.00;;
74535;SDS011;63013;51.104;-115.370;2022-10-17T04:11:42;1.90;;;1.10;;
74535;SDS011;63013;51.104;-115.370;2022-10-17T04:14:09;1.70;;;1.10;;
74535;SDS011;63013;51.104;-115.370;2022-10-17T04:16:37;2.10;;;1.10;;
74535;SDS011;63013;51.104;-115.370;2022-10-17T04:19:05;2.80;;;1.20;;
74535;SDS011;63013;51.104;-115.370;2022-10-17T04:21:31;2.50;;;1.20;;
74535;SDS011;63013;51.104;-115.370;2022-10-17T04:23:59;3.00;;;1.10;;
74535;SDS011;63013;51.104;-115.370;2022-10-17T04:26:26;3.40;;;1.50;;
74535;SDS011;63013;51.104;-115.370;2022-10-17T04:28:53;2.00;;;1.20;;
74535;SDS011;63013;51.104;-115.370;2022-10-17T04:31:21;2.10;;;1.20;;
74535;SDS011;63013;51.104;-115.370;2022-10-17T04:33:49;1.80;;;1.10;;
74535;SDS011;63013;51.104;-115.370;2022-10-17T04:36:18;2.10;;;1.10;;
74535;SDS011;63013;51.104;-115.370;2022-10-17T04:38:45;2.20;;;1.10;;
74535;SDS011;63013;51.104;-115.370;2022-10-17T04:41:15;1.50;;;0.90;;
74535;SDS011;63013;51.104;-115.370;2022-10-17T04:43:43;2.10;;;1.00;;
74535;SDS011;63013;51.104;-115.370;2022-10-17T04:46:12;1.30;;;1.00;;
74535;SDS011;63013;51.104;-115.370;2022-10-17T04:48:41;2.70;;;1.10;;
74535;SDS011;63013;51.104;-115.370;2022-10-17T04:51:12;2.90;;;1.40;;
74535;SDS011;63013;51.104;-115.370;2022-10-17T04:53:41;2.30;;;1.00;;
74535;SDS011;63013;51.104;-115.370;2022-10-17T04:56:17;1.80;;;1.00;;
74535;SDS011;63013;51.104;-115.370;2022-10-17T04:58:49;2.00;;;1.00;;
74535;SDS011;63013;51.104;-115.370;2022-10-17T05:01:19;2.20;;;1.20;;
74535;SDS011;63013;51.104;-115.370;2022-10-17T05:03:47;1.70;;;1.10;;
74535;SDS011;63013;51.104;-115.370;2022-10-17T05:06:20;1.90;;;1.10;;
74535;SDS011;63013;51.104;-115.370;2022-10-17T05:08:48;1.50;;;1.00;;
74535;SDS011;63013;51.104;-115.370;2022-10-17T05:11:21;2.20;;;1.20;;
74535;SDS011;63013;51.104;-115.370;2022-10-17T05:13:57;1.70;;;1.10;;
74535;SDS011;63013;51.104;-115.370;2022-10-17T05:16:27;2.30;;;1.10;;
74535;SDS011;63013;51.104;-115.370;2022-10-17T05:18:57;3.40;;;1.30;;
74535;SDS011;63013;51.104;-115.370;2022-10-17T05:21:26;1.20;;;1.10;;
74535;SDS011;63013;51.104;-115.370;2022-10-17T05:23:54;1.80;;;1.10;;
74535;SDS011;63013;51.104;-115.370;2022-10-17T05:26:22;2.00;;;1.00;;
74535;SDS011;63013;51.104;-115.370;2022-10-17T05:28:49;2.40;;;1.10;;
74535;SDS011;63013;51.104;-115.370;2022-10-17T05:31:19;2.30;;;1.10;;
74535;SDS011;63013;51.104;-115.370;2022-10-17T05:33:46;1.90;;;1.00;;
74535;SDS011;63013;51.104;-115.370;2022-10-17T05:36:14;1.70;;;1.00;;
74535;SDS011;63013;51.104;-115.370;2022-10-17T05:38:41;1.40;;;0.90;;
74535;SDS011;63013;51.104;-115.370;2022-10-17T05:41:09;1.90;;;1.00;;
74535;SDS011;63013;51.104;-115.370;2022-10-17T05:43:36;1.70;;;1.00;;
74535;SDS011;63013;51.104;-115.370;2022-10-17T05:46:05;1.60;;;1.00;;
74535;SDS011;63013;51.104;-115.370;2022-10-17T05:48:32;2.50;;;0.90;;
74535;SDS011;63013;51.104;-115.370;2022-10-17T05:51:05;1.70;;;1.00;;
74535;SDS011;63013;51.104;-115.370;2022-10-17T05:53:36;1.80;;;1.10;;
74535;SDS011;63013;51.104;-115.370;2022-10-17T05:56:07;2.70;;;1.30;;
74535;SDS011;63013;51.104;-115.370;2022-10-17T05:58:35;2.10;;;1.00;;
74535;SDS011;63013;51.104;-115.370;2022-10-17T06:01:06;2.90;;;0.90;;
74535;SDS011;63013;51.104;-115.370;2022-10-17T06:03:33;2.00;;;0.90;;
74535;SDS011;63013;51.104;-115.370;2022-10-17T06:06:08;1.60;;;1.10;;
74535;SDS011;63013;51.104;-115.370;2022-10-17T06:08:37;3.70;;;1.10;;
74535;SDS011;63013;51.104;-115.370;2022-10-17T06:11:04;1.80;;;1.00;;
74535;SDS011;63013;51.104;-115.370;2022-10-17T06:13:32;1.60;;;1.00;;
74535;SDS011;63013;51.104;-115.370;2022-10-17T06:15:59;1.50;;;1.00;;
74535;SDS011;63013;51.104;-115.370;2022-10-17T06:18:26;2.00;;;1.00;;
74535;SDS011;63013;51.104;-115.370;2022-10-17T06:20:54;1.60;;;0.90;;
74535;SDS011;63013;51.104;-115.370;2022-10-17T06:23:29;1.60;;;1.00;;
74535;SDS011;63013;51.104;-115.370;2022-10-17T06:26:03;1.60;;;1.00;;
74535;SDS011;63013;51.104;-115.370;2022-10-17T06:28:32;1.80;;;1.00;;
74535;SDS011;63013;51.104;-115.370;2022-10-17T06:31:09;1.70;;;0.90;;
74535;SDS011;63013;51.104;-115.370;2022-10-17T06:33:38;1.60;;;1.00;;
74535;SDS011;63013;51.104;-115.370;2022-10-17T06:36:07;1.80;;;0.90;;
74535;SDS011;63013;51.104;-115.370;2022-10-17T06:38:38;2.40;;;0.80;;
74535;SDS011;63013;51.104;-115.370;2022-10-17T06:41:13;2.00;;;1.20;;
74535;SDS011;63013;51.104;-115.370;2022-10-17T06:43:42;1.90;;;1.10;;
74535;SDS011;63013;51.104;-115.370;2022-10-17T06:46:17;2.10;;;1.10;;
74535;SDS011;63013;51.104;-115.370;2022-10-17T06:48:45;1.50;;;0.90;;
74535;SDS011;63013;51.104;-115.370;2022-10-17T06:51:12;1.70;;;1.00;;
74535;SDS011;63013;51.104;-115.370;2022-10-17T06:53:39;1.40;;;1.00;;
74535;SDS011;63013;51.104;-115.370;2022-10-17T06:56:07;1.50;;;1.00;;
74535;SDS011;63013;51.104;-115.370;2022-10-17T06:58:37;1.80;;;1.00;;
74535;SDS011;63013;51.104;-115.370;2022-10-17T07:01:07;1.40;;;1.00;;
74535;SDS011;63013;51.104;-115.370;2022-10-17T07:03:36;2.90;;;1.10;;
74535;SDS011;63013;51.104;-115.370;2022-10-17T07:06:04;2.60;;;1.10;;
74535;SDS011;63013;51.104;-115.370;2022-10-17T07:08:32;1.90;;;1.10;;
74535;SDS011;63013;51.104;-115.370;2022-10-17T07:11:07;1.20;;;0.90;;
74535;SDS011;63013;51.104;-115.370;2022-10-17T07:13:37;1.70;;;1.00;;
74535;SDS011;63013;51.104;-115.370;2022-10-17T07:16:05;1.40;;;1.00;;
74535;SDS011;63013;51.104;-115.370;2022-10-17T07:18:32;1.50;;;1.00;;
74535;SDS011;63013;51.104;-115.370;2022-10-17T07:21:00;1.90;;;1.00;;
74535;SDS011;63013;51.104;-115.370;2022-10-17T07:23:26;1.90;;;0.90;;
74535;SDS011;63013;51.104;-115.370;2022-10-17T07:25:59;1.10;;;0.70;;
74535;SDS011;63013;51.104;-115.370;2022-10-17T07:28:27;1.20;;;0.90;;
74535;SDS011;63013;51.104;-115.370;2022-10-17T07:30:54;1.50;;;0.90;;
74535;SDS011;63013;51.104;-115.370;2022-10-17T07:33:21;2.00;;;1.10;;
74535;SDS011;63013;51.104;-115.370;2022-10-17T07:35:48;1.60;;;0.90;;
74535;SDS011;63013;51.104;-115.370;2022-10-17T07:38:17;1.10;;;0.80;;
74535;SDS011;63013;51.104;-115.370;2022-10-17T07:40:44;1.60;;;0.90;;
74535;SDS011;63013;51.104;-115.370;2022-10-17T07:43:18;1.60;;;1.00;;
74535;SDS011;63013;51.104;-115.370;2022-10-17T07:45:45;1.70;;;1.00;;
74535;SDS011;63013;51.104;-115.370;2022-10-17T07:48:12;1.40;;;0.80;;
74535;SDS011;63013;51.104;-115.370;2022-10-17T07:50:39;1.90;;;0.90;;
74535;SDS011;63013;51.104;-115.370;2022-10-17T07:53:06;1.10;;;0.80;;
74535;SDS011;63013;51.104;-115.370;2022-10-17T07:55:35;1.20;;;0.80;;
74535;SDS011;63013;51.104;-115.370;2022-10-17T07:58:03;1.20;;;0.80;;
74535;SDS011;63013;51.104;-115.370;2022-10-17T08:00:30;1.80;;;1.00;;
74535;SDS011;63013;51.104;-115.370;2022-10-17T08:02:57;1.60;;;0.90;;
74535;SDS011;63013;51.104;-115.370;2022-10-17T08:05:24;1.10;;;0.90;;
74535;SDS011;63013;51.104;-115.370;2022-10-17T08:07:51;1.10;;;0.80;;
74535;SDS011;63013;51.104;-115.370;2022-10-17T08:10:19;1.60;;;1.00;;
74535;SDS011;63013;51.104;-115.370;2022-10-17T08:12:47;1.10;;;1.00;;
74535;SDS011;63013;51.104;-115.370;2022-10-17T08:15:14;1.90;;;1.10;;
74535;SDS011;63013;51.104;-115.370;2022-10-17T08:17:42;1.10;;;0.90;;
74535;SDS011;63013;51.104;-115.370;2022-10-17T08:20:09;1.30;;;0.80;;
74535;SDS011;63013;51.104;-115.370;2022-10-17T08:22:37;0.80;;;0.70;;
74535;SDS011;63013;51.104;-115.370;2022-10-17T08:25:04;2.70;;;1.10;;
74535;SDS011;63013;51.104;-115.370;2022-10-17T08:27:33;2.30;;;1.20;;
74535;SDS011;63013;51.104;-115.370;2022-10-17T08:30:00;1.80;;;0.70;;
74535;SDS011;63013;51.104;-115.370;2022-10-17T08:32:28;1.10;;;0.90;;
74535;SDS011;63013;51.104;-115.370;2022-10-17T08:34:55;2.00;;;1.00;;
74535;SDS011;63013;51.104;-115.370;2022-10-17T08:37:22;2.00;;;0.60;;
74535;SDS011;63013;51.104;-115.370;2022-10-17T08:39:50;1.10;;;0.90;;
74535;SDS011;63013;51.104;-115.370;2022-10-17T08:48:19;1.20;;;0.70;;
74535;SDS011;63013;51.104;-115.370;2022-10-17T08:51:04;1.20;;;0.80;;
74535;SDS011;63013;51.104;-115.370;2022-10-17T08:54:05;1.40;;;1.00;;
74535;SDS011;63013;51.104;-115.370;2022-10-17T08:56:43;1.70;;;0.90;;
74535;SDS011;63013;51.104;-115.370;2022-10-17T08:59:21;0.80;;;0.80;;
74535;SDS011;63013;51.104;-115.370;2022-10-17T09:07:32;1.30;;;1.00;;
74535;SDS011;63013;51.104;-115.370;2022-10-17T09:19:27;1.20;;;0.70;;
74535;SDS011;63013;51.104;-115.370;2022-10-17T09:22:12;1.10;;;0.80;;
74535;SDS011;63013;51.104;-115.370;2022-10-17T09:33:22;1.30;;;0.80;;
74535;SDS011;63013;51.104;-115.370;2022-10-17T09:35:53;1.30;;;0.70;;
74535;SDS011;63013;51.104;-115.370;2022-10-17T09:38:25;1.10;;;0.70;;
74535;SDS011;63013;51.104;-115.370;2022-10-17T09:41:01;2.00;;;1.10;;
74535;SDS011;63013;51.104;-115.370;2022-10-17T09:43:28;1.10;;;0.70;;
74535;SDS011;63013;51.104;-115.370;2022-10-17T09:48:40;0.90;;;0.60;;
74535;SDS011;63013;51.104;-115.370;2022-10-17T09:51:12;1.30;;;0.80;;
74535;SDS011;63013;51.104;-115.370;2022-10-17T09:53:54;1.50;;;0.70;;
74535;SDS011;63013;51.104;-115.370;2022-10-17T09:56:26;1.30;;;0.90;;
74535;SDS011;63013;51.104;-115.370;2022-10-17T09:58:56;2.10;;;0.90;;
74535;SDS011;63013;51.104;-115.370;2022-10-17T10:01:28;1.60;;;0.70;;
74535;SDS011;63013;51.104;-115.370;2022-10-17T10:04:13;0.80;;;0.70;;
74535;SDS011;63013;51.104;-115.370;2022-10-17T10:07:02;2.60;;;0.80;;
74535;SDS011;63013;51.104;-115.370;2022-10-17T10:09:33;1.70;;;1.00;;
74535;SDS011;63013;51.104;-115.370;2022-10-17T10:12:05;1.40;;;0.90;;
74535;SDS011;63013;51.104;-115.370;2022-10-17T10:14:42;1.10;;;1.00;;
74535;SDS011;63013;51.104;-115.370;2022-10-17T10:17:37;1.80;;;0.90;;
74535;SDS011;63013;51.104;-115.370;2022-10-17T10:20:33;1.10;;;1.00;;
74535;SDS011;63013;51.104;-115.370;2022-10-17T10:23:09;1.30;;;0.80;;
74535;SDS011;63013;51.104;-115.370;2022-10-17T10:26:03;1.40;;;1.00;;
74535;SDS011;63013;51.104;-115.370;2022-10-17T10:28:33;1.60;;;0.90;;
74535;SDS011;63013;51.104;-115.370;2022-10-17T10:31:07;1.90;;;0.90;;
74535;SDS011;63013;51.104;-115.370;2022-10-17T10:33:40;1.30;;;0.70;;
74535;SDS011;63013;51.104;-115.370;2022-10-17T10:36:09;1.30;;;0.70;;
74535;SDS011;63013;51.104;-115.370;2022-10-17T10:38:39;1.10;;;0.80;;
74535;SDS011;63013;51.104;-115.370;2022-10-17T10:41:09;1.70;;;0.80;;
74535;SDS011;63013;51.104;-115.370;2022-10-17T10:43:41;1.60;;;0.90;;
74535;SDS011;63013;51.104;-115.370;2022-10-17T10:46:21;1.50;;;0.80;;
74535;SDS011;63013;51.104;-115.370;2022-10-17T10:48:51;1.80;;;0.70;;
74535;SDS011;63013;51.104;-115.370;2022-10-17T10:51:33;1.10;;;0.90;;
74535;SDS011;63013;51.104;-115.370;2022-10-17T10:54:22;1.50;;;0.70;;
74535;SDS011;63013;51.104;-115.370;2022-10-17T10:57:01;0.90;;;0.70;;
74535;SDS011;63013;51.104;-115.370;2022-10-17T11:00:02;0.90;;;0.60;;
74535;SDS011;63013;51.104;-115.370;2022-10-17T11:02:53;1.50;;;0.90;;
74535;SDS011;63013;51.104;-115.370;2022-10-17T11:06:03;1.50;;;0.80;;
74535;SDS011;63013;51.104;-115.370;2022-10-17T11:08:47;1.40;;;0.80;;
74535;SDS011;63013;51.104;-115.370;2022-10-17T11:14:13;1.40;;;0.80;;
74535;SDS011;63013;51.104;-115.370;2022-10-17T11:17:26;1.20;;;0.60;;
74535;SDS011;63013;51.104;-115.370;2022-10-17T11:22:48;2.00;;;0.70;;
74535;SDS011;63013;51.104;-115.370;2022-10-17T11:25:32;1.10;;;0.90;;
74535;SDS011;63013;51.104;-115.370;2022-10-17T11:28:02;1.00;;;0.80;;
74535;SDS011;63013;51.104;-115.370;2022-10-17T11:31:05;1.20;;;0.80;;
74535;SDS011;63013;51.104;-115.370;2022-10-17T11:34:03;1.00;;;0.60;;
74535;SDS011;63013;51.104;-115.370;2022-10-17T11:36:38;1.10;;;0.80;;
74535;SDS011;63013;51.104;-115.370;2022-10-17T11:39:16;1.40;;;0.80;;
74535;SDS011;63013;51.104;-115.370;2022-10-17T11:42:07;1.00;;;0.70;;
74535;SDS011;63013;51.104;-115.370;2022-10-17T11:44:41;1.50;;;0.80;;
74535;SDS011;63013;51.104;-115.370;2022-10-17T11:53:10;1.50;;;0.70;;
74535;SDS011;63013;51.104;-115.370;2022-10-17T11:55:39;0.80;;;0.70;;
74535;SDS011;63013;51.104;-115.370;2022-10-17T12:01:37;1.00;;;0.90;;
74535;SDS011;63013;51.104;-115.370;2022-10-17T12:18:49;0.90;;;0.60;;
74535;SDS011;63013;51.104;-115.370;2022-10-17T12:21:53;1.00;;;0.70;;
74535;SDS011;63013;51.104;-115.370;2022-10-17T12:24:44;1.50;;;0.70;;
74535;SDS011;63013;51.104;-115.370;2022-10-17T12:27:42;1.20;;;0.70;;
74535;SDS011;63013;51.104;-115.370;2022-10-17T12:30:21;1.60;;;0.90;;
74535;SDS011;63013;51.104;-115.370;2022-10-17T12:35:32;0.90;;;0.70;;
74535;SDS011;63013;51.104;-115.370;2022-10-17T12:38:01;1.50;;;0.70;;
74535;SDS011;63013;51.104;-115.370;2022-10-17T12:46:00;1.10;;;0.70;;
74535;SDS011;63013;51.104;-115.370;2022-10-17T12:51:16;1.40;;;0.70;;
74535;SDS011;63013;51.104;-115.370;2022-10-17T12:56:55;1.50;;;1.00;;
74535;SDS011;63013;51.104;-115.370;2022-10-17T12:59:29;1.30;;;0.80;;
74535;SDS011;63013;51.104;-115.370;2022-10-17T13:02:00;1.30;;;0.80;;
74535;SDS011;63013;51.104;-115.370;2022-10-17T13:04:29;0.70;;;0.60;;
74535;SDS011;63013;51.104;-115.370;2022-10-17T13:06:57;1.90;;;0.60;;
74535;SDS011;63013;51.104;-115.370;2022-10-17T13:09:36;1.20;;;0.70;;
74535;SDS011;63013;51.104;-115.370;2022-10-17T13:12:12;1.10;;;0.70;;
74535;SDS011;63013;51.104;-115.370;2022-10-17T13:14:45;1.20;;;0.80;;
74535;SDS011;63013;51.104;-115.370;2022-10-17T13:17:28;1.10;;;0.70;;
74535;SDS011;63013;51.104;-115.370;2022-10-17T13:19:56;0.90;;;0.70;;
74535;SDS011;63013;51.104;-115.370;2022-10-17T13:22:26;1.60;;;0.70;;
74535;SDS011;63013;51.104;-115.370;2022-10-17T13:25:13;0.80;;;0.60;;
74535;SDS011;63013;51.104;-115.370;2022-10-17T13:27:42;1.00;;;0.60;;
74535;SDS011;63013;51.104;-115.370;2022-10-17T13:30:31;1.00;;;0.70;;
74535;SDS011;63013;51.104;-115.370;2022-10-17T13:33:00;0.80;;;0.60;;
74535;SDS011;63013;51.104;-115.370;2022-10-17T13:38:01;1.10;;;0.70;;
74535;SDS011;63013;51.104;-115.370;2022-10-17T13:40:40;0.70;;;0.60;;
74535;SDS011;63013;51.104;-115.370;2022-10-17T13:43:16;1.00;;;0.70;;
74535;SDS011;63013;51.104;-115.370;2022-10-17T13:45:48;1.10;;;0.80;;
74535;SDS011;63013;51.104;-115.370;2022-10-17T13:48:24;0.80;;;0.70;;
74535;SDS011;63013;51.104;-115.370;2022-10-17T13:50:56;1.50;;;0.80;;
74535;SDS011;63013;51.104;-115.370;2022-10-17T13:53:38;0.90;;;0.60;;
74535;SDS011;63013;51.104;-115.370;2022-10-17T13:58:44;1.50;;;0.80;;
74535;SDS011;63013;51.104;-115.370;2022-10-17T14:01:16;0.90;;;0.80;;
74535;SDS011;63013;51.104;-115.370;2022-10-17T14:03:45;1.30;;;0.80;;
74535;SDS011;63013;51.104;-115.370;2022-10-17T14:06:20;1.10;;;1.00;;
74535;SDS011;63013;51.104;-115.370;2022-10-17T14:09:04;1.00;;;0.80;;
74535;SDS011;63013;51.104;-115.370;2022-10-17T14:11:43;1.00;;;0.80;;
74535;SDS011;63013;51.104;-115.370;2022-10-17T14:14:23;1.20;;;0.90;;
74535;SDS011;63013;51.104;-115.370;2022-10-17T14:16:51;1.10;;;0.70;;
74535;SDS011;63013;51.104;-115.370;2022-10-17T14:19:28;1.10;;;0.60;;
74535;SDS011;63013;51.104;-115.370;2022-10-17T14:24:49;0.70;;;0.70;;
74535;SDS011;63013;51.104;-115.370;2022-10-17T14:27:26;1.20;;;0.60;;
74535;SDS011;63013;51.104;-115.370;2022-10-17T14:29:54;1.10;;;0.70;;
74535;SDS011;63013;51.104;-115.370;2022-10-17T14:32:31;1.00;;;0.60;;
74535;SDS011;63013;51.104;-115.370;2022-10-17T14:35:02;1.00;;;0.60;;
74535;SDS011;63013;51.104;-115.370;2022-10-17T14:37:47;0.80;;;0.60;;
74535;SDS011;63013;51.104;-115.370;2022-10-17T14:40:21;0.80;;;0.60;;
74535;SDS011;63013;51.104;-115.370;2022-10-17T14:42:55;1.00;;;0.60;;
74535;SDS011;63013;51.104;-115.370;2022-10-17T14:45:35;0.50;;;0.40;;
74535;SDS011;63013;51.104;-115.370;2022-10-17T14:48:19;1.30;;;0.70;;
74535;SDS011;63013;51.104;-115.370;2022-10-17T14:51:07;0.80;;;0.60;;
74535;SDS011;63013;51.104;-115.370;2022-10-17T14:53:37;0.50;;;0.40;;
74535;SDS011;63013;51.104;-115.370;2022-10-17T14:56:38;0.70;;;0.50;;
74535;SDS011;63013;51.104;-115.370;2022-10-17T14:59:07;1.40;;;0.50;;
74535;SDS011;63013;51.104;-115.370;2022-10-17T15:01:38;0.70;;;0.50;;
74535;SDS011;63013;51.104;-115.370;2022-10-17T15:04:05;0.70;;;0.40;;
74535;SDS011;63013;51.104;-115.370;2022-10-17T15:06:36;1.20;;;0.50;;
74535;SDS011;63013;51.104;-115.370;2022-10-17T15:09:03;2.00;;;0.40;;
74535;SDS011;63013;51.104;-115.370;2022-10-17T15:11:30;0.90;;;0.40;;
74535;SDS011;63013;51.104;-115.370;2022-10-17T15:13:57;0.50;;;0.40;;
74535;SDS011;63013;51.104;-115.370;2022-10-17T15:16:26;1.00;;;0.50;;
74535;SDS011;63013;51.104;-115.370;2022-10-17T15:18:57;0.50;;;0.50;;
74535;SDS011;63013;51.104;-115.370;2022-10-17T15:21:26;0.50;;;0.40;;
74535;SDS011;63013;51.104;-115.370;2022-10-17T15:23:54;0.50;;;0.40;;
74535;SDS011;63013;51.104;-115.370;2022-10-17T15:26:23;1.00;;;0.60;;
74535;SDS011;63013;51.104;-115.370;2022-10-17T15:28:52;2.80;;;0.50;;
74535;SDS011;63013;51.104;-115.370;2022-10-17T15:31:21;1.40;;;0.60;;
74535;SDS011;63013;51.104;-115.370;2022-10-17T15:33:51;0.40;;;0.40;;
74535;SDS011;63013;51.104;-115.370;2022-10-17T15:38:53;1.00;;;0.70;;
74535;SDS011;63013;51.104;-115.370;2022-10-17T15:41:23;0.50;;;0.50;;
74535;SDS011;63013;51.104;-115.370;2022-10-17T15:43:52;1.50;;;0.40;;
74535;SDS011;63013;51.104;-115.370;2022-10-17T15:46:25;0.70;;;0.50;;
74535;SDS011;63013;51.104;-115.370;2022-10-17T15:48:55;1.10;;;0.50;;
74535;SDS011;63013;51.104;-115.370;2022-10-17T15:51:26;0.70;;;0.40;;
74535;SDS011;63013;51.104;-115.370;2022-10-17T15:53:53;1.70;;;0.60;;
74535;SDS011;63013;51.104;-115.370;2022-10-17T15:56:27;0.70;;;0.50;;
74535;SDS011;63013;51.104;-115.370;2022-10-17T15:58:57;0.60;;;0.50;;
74535;SDS011;63013;51.104;-115.370;2022-10-17T16:01:28;0.90;;;0.40;;
74535;SDS011;63013;51.104;-115.370;2022-10-17T16:03:57;1.30;;;0.50;;
74535;SDS011;63013;51.104;-115.370;2022-10-17T16:06:24;1.40;;;0.50;;
74535;SDS011;63013;51.104;-115.370;2022-10-17T16:08:52;0.50;;;0.30;;
74535;SDS011;63013;51.104;-115.370;2022-10-17T16:11:39;0.60;;;0.50;;
74535;SDS011;63013;51.104;-115.370;2022-10-17T16:14:13;0.90;;;0.60;;
74535;SDS011;63013;51.104;-115.370;2022-10-17T16:16:43;1.40;;;0.40;;
74535;SDS011;63013;51.104;-115.370;2022-10-17T16:19:10;0.90;;;0.40;;
74535;SDS011;63013;51.104;-115.370;2022-10-17T16:21:39;0.70;;;0.50;;
74535;SDS011;63013;51.104;-115.370;2022-10-17T16:24:10;2.20;;;0.40;;
74535;SDS011;63013;51.104;-115.370;2022-10-17T16:26:41;0.80;;;0.40;;